createdAt,value
2023-08-10T00:00:15.878Z,92.54
2023-08-10T00:02:44.094Z,92.70
2023-08-10T00:05:12.807Z,93.10
2023-08-10T00:07:41.909Z,92.59
2023-08-10T00:10:10.066Z,92.46
2023-08-10T00:12:38.741Z,92.61
2023-08-10T00:15:06.909Z,92.40
2023-08-10T00:17:34.832Z,92.31
2023-08-10T00:20:06.342Z,92.50
2023-08-10T00:22:34.277Z,93.05
2023-08-10T00:25:03.865Z,93.19
2023-08-10T00:27:31.522Z,93.24
2023-08-10T00:30:01.658Z,93.43
2023-08-10T00:32:29.720Z,93.27
2023-08-10T00:34:57.490Z,93.37
2023-08-10T00:37:25.655Z,93.02
2023-08-10T00:39:53.274Z,93.22
2023-08-10T00:42:22.350Z,92.95
2023-08-10T00:44:50.581Z,93.45
2023-08-10T00:47:18.260Z,93.35
2023-08-10T00:49:46.120Z,93.70
2023-08-10T00:52:13.953Z,93.78
2023-08-10T00:54:41.865Z,93.71
2023-08-10T00:57:09.566Z,93.89
2023-08-10T00:59:40.149Z,93.99
2023-08-10T01:02:08.906Z,94.37
2023-08-10T01:04:36.861Z,94.33
2023-08-10T01:07:10.833Z,94.43
2023-08-10T01:09:44.269Z,94.78
2023-08-10T01:12:22.630Z,94.59
2023-08-10T01:14:59.495Z,94.52
2023-08-10T01:17:31.551Z,94.96
2023-08-10T01:20:04.758Z,94.57
2023-08-10T01:22:47.112Z,94.69
2023-08-10T01:25:17.720Z,94.24
2023-08-10T01:27:47.152Z,93.95
2023-08-10T01:30:15.816Z,93.54
2023-08-10T01:32:43.981Z,93.14
2023-08-10T01:35:12.380Z,92.86
2023-08-10T01:37:40.781Z,92.80
2023-08-10T01:40:10.594Z,92.89
2023-08-10T01:42:39.625Z,93.44
2023-08-10T01:45:09.083Z,93.46
2023-08-10T01:47:41.466Z,93.32
2023-08-10T01:50:10.931Z,93.54
2023-08-10T01:52:43.554Z,93.52
2023-08-10T01:55:12.184Z,93.59
2023-08-10T01:57:41.543Z,93.75
2023-08-10T02:00:12.158Z,93.70
2023-08-10T02:02:48.178Z,93.70
2023-08-10T02:05:16.109Z,93.76
2023-08-10T02:07:49.663Z,93.19
2023-08-10T02:10:17.945Z,93.15
2023-08-10T02:12:46.969Z,93.37
2023-08-10T02:15:14.737Z,93.06
2023-08-10T02:17:42.813Z,92.35
2023-08-10T02:20:13.969Z,91.97
2023-08-10T02:22:44.039Z,91.55
2023-08-10T02:25:11.981Z,91.51
2023-08-10T02:27:40.897Z,91.81
2023-08-10T02:30:11.397Z,92.19
2023-08-10T02:32:39.876Z,91.68
2023-08-10T02:35:10.150Z,91.31
2023-08-10T02:37:38.717Z,90.68
2023-08-10T02:40:07.896Z,90.88
2023-08-10T02:42:35.876Z,90.33
2023-08-10T02:45:04.498Z,89.86
2023-08-10T02:47:35.047Z,90.59
2023-08-10T02:50:03.537Z,90.88
2023-08-10T02:52:31.182Z,91.14
2023-08-10T02:54:59.421Z,91.50
2023-08-10T02:57:27.137Z,91.96
2023-08-10T02:59:54.860Z,92.55
2023-08-10T03:02:22.989Z,92.39
2023-08-10T03:04:52.199Z,91.84
2023-08-10T03:07:20.181Z,91.21
2023-08-10T03:09:48.534Z,90.73
2023-08-10T03:12:22.347Z,90.69
2023-08-10T03:14:50.594Z,91.18
2023-08-10T03:17:19.161Z,91.59
2023-08-10T03:19:47.202Z,91.42
2023-08-10T03:22:16.724Z,91.72
2023-08-10T03:24:44.437Z,91.98
2023-08-10T03:27:12.099Z,91.72
2023-08-10T03:29:39.900Z,91.71
2023-08-10T03:32:08.620Z,92.02
2023-08-10T03:34:36.628Z,91.81
2023-08-10T03:37:05.148Z,91.79
2023-08-10T03:39:35.237Z,92.13
2023-08-10T03:42:03.615Z,92.19
2023-08-10T03:44:31.656Z,92.02
2023-08-10T03:46:59.572Z,92.11
2023-08-10T03:49:27.283Z,92.38
2023-08-10T03:51:56.045Z,92.35
2023-08-10T03:54:23.819Z,92.30
2023-08-10T03:56:53.098Z,92.56
2023-08-10T03:59:21.635Z,93.34
2023-08-10T04:01:52.948Z,93.39
2023-08-10T04:04:20.598Z,93.59
2023-08-10T04:06:48.348Z,93.50
2023-08-10T04:09:15.965Z,93.21
2023-08-10T04:11:43.656Z,93.12
2023-08-10T04:14:13.491Z,93.04
2023-08-10T04:16:41.250Z,92.92
2023-08-10T04:19:09.403Z,92.09
2023-08-10T04:21:37.114Z,92.09
2023-08-10T04:24:05.868Z,91.91
2023-08-10T04:26:33.594Z,92.09
2023-08-10T04:29:01.716Z,91.88
2023-08-10T04:31:30.723Z,91.19
2023-08-10T04:33:58.350Z,90.63
2023-08-10T04:36:26.246Z,90.50
2023-08-10T04:38:54.996Z,89.56
2023-08-10T04:41:22.825Z,89.44
2023-08-10T04:43:50.791Z,89.31
2023-08-10T04:46:18.554Z,89.08
2023-08-10T04:48:47.658Z,89.00
2023-08-10T04:51:15.333Z,89.25
2023-08-10T04:53:43.021Z,89.53
2023-08-10T04:56:10.701Z,89.29
2023-08-10T04:58:38.647Z,89.04
2023-08-10T05:01:06.392Z,89.12
2023-08-10T05:03:34.740Z,89.31
2023-08-10T05:06:04.310Z,89.13
2023-08-10T05:08:32.816Z,88.40
2023-08-10T05:11:02.261Z,84.55
2023-08-10T05:13:30.053Z,82.68
2023-08-10T05:15:58.094Z,82.66
2023-08-10T05:18:25.902Z,82.32
2023-08-10T05:20:53.566Z,82.36
2023-08-10T05:23:22.563Z,82.31
2023-08-10T05:25:50.211Z,82.67
2023-08-10T05:28:18.391Z,82.15
2023-08-10T05:30:46.101Z,82.57
2023-08-10T05:33:13.992Z,82.19
2023-08-10T05:35:42.076Z,82.62
2023-08-10T05:38:10.358Z,81.74
2023-08-10T05:40:39.722Z,81.45
2023-08-10T05:43:07.651Z,81.68
2023-08-10T05:45:35.395Z,81.81
2023-08-10T05:48:03.175Z,81.43
2023-08-10T05:50:30.951Z,86.81
2023-08-10T05:52:58.609Z,80.16
2023-08-10T05:55:26.546Z,80.38
2023-08-10T05:57:55.535Z,79.20
2023-08-10T06:00:23.512Z,78.38
2023-08-10T06:02:52.415Z,77.41
2023-08-10T06:05:21.258Z,78.37
2023-08-10T06:07:49.197Z,77.17
2023-08-10T06:10:17.710Z,76.90
2023-08-10T06:12:45.485Z,75.42
2023-08-10T06:15:14.635Z,75.05
2023-08-10T06:17:43.246Z,74.70
2023-08-10T06:20:17.870Z,75.54
2023-08-10T06:22:46.166Z,75.35
2023-08-10T06:25:14.939Z,74.63
2023-08-10T06:27:43.290Z,73.22
2023-08-10T06:30:11.951Z,73.81
2023-08-10T06:32:41.180Z,74.10
2023-08-10T06:35:11.148Z,75.34
2023-08-10T06:37:39.244Z,74.10
2023-08-10T06:40:10.089Z,74.49
2023-08-10T06:42:38.700Z,74.19
2023-08-10T06:45:14.371Z,74.49
2023-08-10T06:47:44.657Z,74.44
2023-08-10T06:50:13.537Z,74.20
2023-08-10T06:52:42.742Z,73.43
2023-08-10T06:55:12.822Z,73.16
2023-08-10T06:57:42.101Z,73.42
2023-08-10T07:02:46.917Z,73.52
2023-08-10T07:05:15.106Z,71.90
2023-08-10T07:07:42.817Z,71.13
2023-08-10T07:10:10.908Z,72.71
2023-08-10T07:12:38.852Z,72.05
2023-08-10T07:15:08.493Z,72.21
2023-08-10T07:17:36.537Z,71.10
2023-08-10T07:20:07.430Z,71.27
2023-08-10T07:22:39.680Z,71.00
2023-08-10T07:25:08.682Z,70.11
2023-08-10T07:27:37.244Z,67.92
2023-08-10T07:30:05.834Z,69.14
2023-08-10T07:32:33.589Z,68.54
2023-08-10T07:35:01.286Z,62.96
2023-08-10T07:37:30.710Z,62.70
2023-08-10T07:39:58.454Z,59.93
2023-08-10T07:42:26.356Z,58.20
2023-08-10T07:44:54.173Z,56.90
2023-08-10T07:47:22.286Z,57.13
2023-08-10T07:49:50.044Z,57.89
2023-08-10T07:52:17.748Z,61.14
2023-08-10T07:54:47.041Z,58.09
2023-08-10T07:57:14.735Z,59.95
2023-08-10T07:59:43.479Z,58.03
2023-08-10T08:02:11.305Z,54.81
2023-08-10T08:04:39.176Z,55.43
2023-08-10T08:07:06.986Z,56.00
2023-08-10T08:09:35.033Z,56.25
2023-08-10T08:12:04.713Z,54.71
2023-08-10T08:14:32.810Z,56.25
2023-08-10T08:17:00.454Z,55.42
2023-08-10T08:19:28.270Z,55.27
2023-08-10T08:21:56.003Z,55.72
2023-08-10T08:24:23.637Z,55.33
2023-08-10T08:26:51.652Z,55.43
2023-08-10T08:29:20.663Z,55.96
2023-08-10T08:31:48.470Z,51.21
2023-08-10T08:34:16.518Z,52.43
2023-08-10T08:36:45.868Z,52.39
2023-08-10T08:39:13.945Z,52.77
2023-08-10T08:41:41.827Z,53.54
2023-08-10T08:44:10.688Z,53.34
2023-08-10T08:46:41.916Z,50.83
2023-08-10T08:49:09.984Z,51.58
2023-08-10T08:51:38.275Z,48.83
2023-08-10T08:54:06.686Z,48.74
2023-08-10T08:56:34.384Z,48.35
2023-08-10T08:59:02.101Z,51.95
2023-08-10T09:01:31.362Z,50.28
2023-08-10T09:04:01.439Z,49.04
2023-08-10T09:06:29.292Z,50.71
2023-08-10T09:08:57.035Z,50.53
2023-08-10T09:11:24.976Z,51.68
2023-08-10T09:14:09.342Z,51.63
2023-08-10T09:16:39.327Z,51.91
2023-08-10T09:19:12.712Z,53.85
2023-08-10T09:21:40.971Z,49.64
2023-08-10T09:24:11.615Z,51.58
2023-08-10T09:26:41.028Z,52.05
2023-08-10T09:29:09.448Z,53.39
2023-08-10T09:31:37.285Z,52.77
2023-08-10T09:34:12.164Z,50.06
2023-08-10T09:36:41.144Z,49.93
2023-08-10T09:39:18.109Z,47.01
2023-08-10T09:41:45.756Z,48.33
2023-08-10T09:44:14.052Z,44.57
2023-08-10T09:46:41.947Z,44.59
2023-08-10T09:49:10.239Z,41.22
2023-08-10T09:51:41.871Z,43.22
2023-08-10T09:54:10.187Z,43.27
2023-08-10T09:56:38.165Z,43.90
2023-08-10T09:59:06.197Z,46.08
2023-08-10T10:01:34.420Z,43.46
2023-08-10T10:04:02.648Z,42.50
2023-08-10T10:06:31.324Z,41.89
2023-08-10T10:09:04.706Z,41.12
2023-08-10T10:11:34.055Z,44.79
2023-08-10T10:14:03.167Z,42.56
2023-08-10T10:16:33.415Z,41.66
2023-08-10T10:19:02.361Z,41.08
2023-08-10T10:21:30.636Z,44.34
2023-08-10T10:24:04.866Z,40.47
2023-08-10T10:26:32.603Z,41.56
2023-08-10T10:29:11.389Z,42.49
2023-08-10T10:31:39.302Z,41.82
2023-08-10T10:34:07.336Z,41.26
2023-08-10T10:36:34.983Z,43.72
2023-08-10T10:39:09.846Z,42.28
2023-08-10T10:41:38.385Z,44.48
2023-08-10T10:44:10.642Z,44.32
2023-08-10T10:46:40.013Z,42.83
2023-08-10T10:49:10.391Z,41.66
2023-08-10T10:51:45.769Z,45.52
2023-08-10T10:54:15.445Z,42.97
2023-08-10T10:56:43.694Z,42.43
2023-08-10T10:59:11.320Z,42.31
2023-08-10T11:01:39.292Z,43.41
2023-08-10T11:04:07.954Z,43.75
2023-08-10T11:06:39.190Z,42.46
2023-08-10T11:09:09.059Z,41.99
2023-08-10T11:11:38.800Z,43.94
2023-08-10T11:14:07.009Z,42.81
2023-08-10T11:16:42.515Z,39.12
2023-08-10T11:19:12.788Z,40.73
2023-08-10T11:21:43.547Z,39.97
2023-08-10T11:24:11.259Z,40.46
2023-08-10T11:26:40.681Z,41.40
2023-08-10T11:29:08.480Z,41.57
2023-08-10T11:31:43.832Z,43.30
2023-08-10T11:34:23.616Z,40.67
2023-08-10T11:36:52.906Z,41.85
2023-08-10T11:39:21.813Z,43.53
2023-08-10T11:41:51.234Z,41.50
2023-08-10T11:44:27.177Z,42.54
2023-08-10T11:46:58.830Z,40.41
2023-08-10T11:49:31.283Z,43.79
2023-08-10T11:52:01.338Z,39.25
2023-08-10T11:54:30.871Z,41.57
2023-08-10T11:57:00.645Z,40.70
2023-08-10T11:59:36.352Z,40.93
2023-08-10T12:02:06.208Z,41.59
2023-08-10T12:04:37.448Z,42.21
2023-08-10T12:07:06.340Z,43.39
2023-08-10T12:09:34.434Z,39.18
2023-08-10T12:12:05.114Z,40.47
2023-08-10T12:14:33.269Z,42.19
2023-08-10T12:17:01.152Z,40.40
2023-08-10T12:19:30.238Z,41.51
2023-08-10T12:22:06.698Z,40.52
2023-08-10T12:24:34.723Z,41.28
2023-08-10T12:27:04.370Z,39.16
2023-08-10T12:29:32.680Z,38.80
2023-08-10T12:32:01.816Z,37.77
2023-08-10T12:34:29.512Z,39.47
2023-08-10T12:36:57.765Z,37.24
2023-08-10T12:39:27.806Z,38.61
2023-08-10T12:41:55.520Z,36.11
2023-08-10T12:44:24.701Z,35.25
2023-08-10T12:46:53.212Z,39.12
2023-08-10T12:49:21.163Z,38.73
2023-08-10T12:51:48.860Z,35.72
2023-08-10T12:54:16.735Z,39.19
2023-08-10T12:56:44.459Z,36.45
2023-08-10T12:59:12.240Z,36.57
2023-08-10T13:01:42.505Z,34.65
2023-08-10T13:04:10.251Z,33.25
2023-08-10T13:06:38.533Z,34.88
2023-08-10T13:09:06.478Z,35.62
2023-08-10T13:11:35.573Z,31.92
2023-08-10T13:14:03.361Z,33.04
2023-08-10T13:16:31.189Z,35.34
2023-08-10T13:19:00.760Z,37.28
2023-08-10T13:21:28.599Z,35.49
2023-08-10T13:23:56.535Z,34.58
2023-08-10T13:26:24.274Z,32.94
2023-08-10T13:28:52.169Z,32.57
2023-08-10T13:31:19.956Z,33.82
2023-08-10T13:33:47.786Z,34.04
2023-08-10T13:36:17.234Z,35.14
2023-08-10T13:38:44.991Z,34.44
2023-08-10T13:41:12.862Z,33.58
2023-08-10T13:43:41.192Z,32.70
2023-08-10T13:46:09.012Z,34.32
2023-08-10T13:48:37.328Z,34.90
2023-08-10T13:51:05.123Z,36.77
2023-08-10T13:53:34.445Z,33.90
2023-08-10T13:56:02.234Z,35.13
2023-08-10T13:58:29.985Z,32.87
2023-08-10T14:00:57.933Z,35.51
2023-08-10T14:03:25.655Z,34.95
2023-08-10T14:05:53.517Z,35.03
2023-08-10T14:08:21.340Z,34.14
2023-08-10T14:10:50.325Z,34.35
2023-08-10T14:13:18.799Z,32.25
2023-08-10T14:15:46.502Z,36.97
2023-08-10T14:18:14.177Z,35.89
2023-08-10T14:20:42.150Z,36.62
2023-08-10T14:23:10.541Z,36.51
2023-08-10T14:25:38.810Z,36.38
2023-08-10T14:28:08.137Z,34.90
2023-08-10T14:30:36.272Z,36.44
2023-08-10T14:33:04.308Z,37.11
2023-08-10T14:35:32.036Z,35.58
2023-08-10T14:38:02.127Z,34.86
2023-08-10T14:40:29.916Z,36.32
2023-08-10T14:42:58.226Z,37.26
2023-08-10T14:45:27.505Z,37.31
2023-08-10T14:48:00.947Z,36.65
2023-08-10T14:50:30.031Z,36.56
2023-08-10T14:52:57.702Z,36.77
2023-08-10T14:55:25.874Z,38.71
2023-08-10T14:57:53.576Z,35.77
2023-08-10T15:00:22.200Z,37.76
2023-08-10T15:02:51.515Z,36.01
2023-08-10T15:05:20.486Z,38.59
2023-08-10T15:07:48.289Z,38.06
2023-08-10T15:10:16.533Z,37.42
2023-08-10T15:12:44.186Z,37.41
2023-08-10T15:15:12.484Z,35.22
2023-08-10T15:17:40.749Z,36.45
2023-08-10T15:20:13.354Z,37.64
2023-08-10T15:22:41.398Z,38.21
2023-08-10T15:25:10.537Z,36.03
2023-08-10T15:27:40.653Z,35.97
2023-08-10T15:30:09.869Z,36.36
2023-08-10T15:32:37.851Z,35.49
2023-08-10T15:35:06.279Z,36.88
2023-08-10T15:37:35.637Z,36.54
2023-08-10T15:40:05.408Z,37.99
2023-08-10T15:42:33.117Z,35.91
2023-08-10T15:45:01.080Z,36.29
2023-08-10T15:47:28.772Z,36.86
2023-08-10T15:49:56.453Z,34.22
2023-08-10T15:52:24.570Z,33.44
2023-08-10T15:54:54.115Z,36.38
2023-08-10T15:57:22.065Z,35.06
2023-08-10T15:59:49.731Z,36.46
2023-08-10T16:02:20.674Z,34.53
2023-08-10T16:04:49.641Z,34.37
2023-08-10T16:07:17.352Z,33.70
2023-08-10T16:09:45.340Z,32.95
2023-08-10T16:12:14.357Z,31.47
2023-08-10T16:14:42.307Z,33.90
2023-08-10T16:17:09.944Z,31.52
2023-08-10T16:19:37.596Z,34.97
2023-08-10T16:22:05.831Z,36.34
2023-08-10T16:24:33.748Z,34.73
2023-08-10T16:27:02.249Z,32.37
2023-08-10T16:29:31.565Z,32.58
2023-08-10T16:32:00.223Z,34.81
2023-08-10T16:34:29.192Z,36.05
2023-08-10T16:36:56.856Z,36.00
2023-08-10T16:39:24.696Z,31.44
2023-08-10T16:41:52.368Z,33.56
2023-08-10T16:44:20.009Z,34.41
2023-08-10T16:46:49.322Z,32.89
2023-08-10T16:49:16.944Z,32.09
2023-08-10T16:51:44.669Z,32.42
2023-08-10T16:54:12.453Z,28.73
2023-08-10T16:56:40.168Z,32.02
2023-08-10T16:59:08.044Z,31.11
2023-08-10T17:01:35.868Z,32.22
2023-08-10T17:04:06.137Z,33.13
2023-08-10T17:06:33.863Z,32.82
2023-08-10T17:09:01.608Z,34.86
2023-08-10T17:11:29.388Z,37.03
2023-08-10T17:13:57.002Z,38.81
2023-08-10T17:16:26.258Z,41.70
2023-08-10T17:18:54.773Z,44.98
2023-08-10T17:21:23.851Z,45.61
2023-08-10T17:23:51.658Z,47.48
2023-08-10T17:26:19.530Z,50.20
2023-08-10T17:28:47.274Z,50.25
2023-08-10T17:31:15.591Z,51.75
2023-08-10T17:33:43.948Z,51.55
2023-08-10T17:36:11.711Z,54.03
2023-08-10T17:38:41.185Z,55.21
2023-08-10T17:41:09.218Z,56.39
2023-08-10T17:43:36.972Z,57.11
2023-08-10T17:46:04.872Z,58.82
2023-08-10T17:48:32.581Z,58.71
2023-08-10T17:51:00.385Z,58.86
2023-08-10T17:53:28.340Z,59.63
2023-08-10T17:55:57.553Z,60.54
2023-08-10T17:58:25.675Z,60.50
2023-08-10T18:00:53.401Z,61.91
2023-08-10T18:03:21.184Z,63.16
2023-08-10T18:05:48.876Z,62.84
2023-08-10T18:08:16.534Z,63.57
2023-08-10T18:10:44.568Z,64.58
2023-08-10T18:13:13.586Z,65.19
2023-08-10T18:15:41.259Z,65.01
2023-08-10T18:18:09.397Z,66.01
2023-08-10T18:20:37.134Z,66.16
2023-08-10T18:23:05.233Z,66.21
2023-08-10T18:25:32.931Z,66.75
2023-08-10T18:28:01.947Z,68.14
2023-08-10T18:30:30.961Z,67.92
2023-08-10T18:32:58.687Z,68.51
2023-08-10T18:35:26.549Z,69.25
2023-08-10T18:37:54.213Z,70.19
2023-08-10T18:40:21.923Z,71.18
2023-08-10T18:42:49.616Z,71.91
2023-08-10T18:45:17.413Z,71.77
2023-08-10T18:47:46.445Z,70.71
2023-08-10T18:50:14.337Z,71.64
2023-08-10T18:52:42.244Z,72.51
2023-08-10T18:55:10.941Z,73.33
2023-08-10T18:57:39.672Z,73.29
2023-08-10T19:00:09.199Z,73.52
2023-08-10T19:02:36.973Z,74.28
2023-08-10T19:05:07.021Z,73.66
2023-08-10T19:07:34.679Z,73.03
2023-08-10T19:10:02.410Z,73.97
2023-08-10T19:12:30.160Z,74.11
2023-08-10T19:14:57.792Z,75.28
2023-08-10T19:17:25.757Z,74.92
2023-08-10T19:19:53.433Z,74.91
2023-08-10T19:22:22.557Z,74.00
2023-08-10T19:24:50.744Z,73.42
2023-08-10T19:27:21.951Z,73.33
2023-08-10T19:29:49.621Z,73.07
2023-08-10T19:32:17.837Z,72.83
2023-08-10T19:34:45.591Z,72.67
2023-08-10T19:37:13.501Z,72.72
2023-08-10T19:39:42.582Z,70.50
2023-08-10T19:42:10.356Z,68.45
2023-08-10T19:44:38.480Z,66.95
2023-08-10T19:47:06.761Z,65.75
2023-08-10T19:49:34.911Z,66.12
2023-08-10T19:52:04.162Z,65.38
2023-08-10T19:54:32.460Z,66.33
2023-08-10T19:57:01.711Z,66.56
2023-08-10T19:59:29.300Z,66.57
2023-08-10T20:01:57.573Z,66.51
2023-08-10T20:04:25.300Z,67.20
2023-08-10T20:06:53.617Z,67.16
2023-08-10T20:09:22.070Z,67.10
2023-08-10T20:11:49.855Z,65.98
2023-08-10T20:14:19.334Z,65.24
2023-08-10T20:16:47.452Z,64.44
2023-08-10T20:19:15.191Z,63.17
2023-08-10T20:21:42.965Z,62.66
2023-08-10T20:24:10.696Z,62.97
2023-08-10T20:26:39.548Z,64.17
2023-08-10T20:29:07.506Z,63.70
2023-08-10T20:31:36.717Z,63.90
2023-08-10T20:34:04.682Z,64.26
2023-08-10T20:36:32.945Z,64.42
2023-08-10T20:39:00.721Z,64.58
2023-08-10T20:41:28.874Z,64.46
2023-08-10T20:43:57.253Z,64.82
2023-08-10T20:46:26.763Z,66.20
2023-08-10T20:48:56.238Z,66.63
2023-08-10T20:51:24.548Z,67.08
2023-08-10T20:53:53.551Z,66.16
2023-08-10T20:56:22.207Z,66.93
2023-08-10T20:58:52.206Z,66.85
2023-08-10T21:01:20.108Z,65.92
2023-08-10T21:03:48.371Z,65.51
2023-08-10T21:06:17.381Z,65.87
2023-08-10T21:08:47.465Z,66.84
2023-08-10T21:11:15.094Z,66.57
2023-08-10T21:13:42.868Z,67.62
2023-08-10T21:16:11.788Z,67.30
2023-08-10T21:18:39.572Z,67.56
2023-08-10T21:21:07.562Z,69.14
2023-08-10T21:23:37.025Z,68.45
2023-08-10T21:26:04.837Z,67.25
2023-08-10T21:28:32.578Z,68.10
2023-08-10T21:31:00.342Z,68.28
2023-08-10T21:33:28.077Z,68.29
2023-08-10T21:35:55.834Z,68.68
2023-08-10T21:38:23.470Z,69.44
2023-08-10T21:40:52.496Z,70.28
2023-08-10T21:43:20.389Z,69.42
2023-08-10T21:45:48.007Z,69.94
2023-08-10T21:48:15.886Z,70.35
2023-08-10T21:50:43.870Z,71.05
2023-08-10T21:53:11.544Z,71.44
2023-08-10T21:55:39.186Z,71.45
2023-08-10T21:58:08.251Z,70.21
2023-08-10T22:00:36.033Z,71.32
2023-08-10T22:03:04.063Z,71.63
2023-08-10T22:05:31.828Z,72.26
2023-08-10T22:08:00.146Z,72.97
2023-08-10T22:10:27.843Z,73.19
2023-08-10T22:12:55.701Z,72.77
2023-08-10T22:15:25.418Z,72.50
2023-08-10T22:17:53.076Z,71.97
2023-08-10T22:20:20.804Z,70.91
2023-08-10T22:22:58.289Z,70.96
2023-08-10T22:25:32.464Z,71.27
2023-08-10T22:28:01.660Z,69.99
2023-08-10T22:30:30.695Z,69.08
2023-08-10T22:32:59.358Z,67.78
2023-08-10T22:35:27.129Z,66.33
2023-08-10T22:37:54.825Z,65.42
2023-08-10T22:40:22.825Z,65.00
2023-08-10T22:42:50.535Z,65.99
2023-08-10T22:45:18.637Z,66.53
2023-08-10T22:47:47.672Z,65.87
2023-08-10T22:50:15.443Z,66.83
2023-08-10T22:52:43.349Z,68.21
2023-08-10T22:55:12.035Z,69.65
2023-08-10T22:57:40.345Z,70.71
2023-08-10T23:00:11.027Z,71.05
2023-08-10T23:02:38.892Z,71.21
2023-08-10T23:05:09.094Z,71.99
2023-08-10T23:07:37.619Z,73.05
2023-08-10T23:10:06.384Z,73.16
2023-08-10T23:12:34.113Z,73.21
2023-08-10T23:15:02.167Z,74.66
2023-08-10T23:17:30.371Z,74.44
2023-08-10T23:19:58.571Z,74.55
2023-08-10T23:22:27.981Z,76.24
2023-08-10T23:24:55.625Z,75.84
2023-08-10T23:27:23.578Z,76.19
2023-08-10T23:29:51.236Z,76.00
2023-08-10T23:32:19.151Z,76.44
2023-08-10T23:34:46.781Z,77.13
2023-08-10T23:37:15.052Z,76.97
2023-08-10T23:39:44.240Z,76.86
2023-08-10T23:42:12.153Z,76.88
2023-08-10T23:44:39.842Z,76.44
2023-08-10T23:47:16.303Z,76.43
2023-08-10T23:49:45.071Z,73.83
2023-08-10T23:52:13.012Z,71.30
2023-08-10T23:54:40.695Z,70.02
2023-08-10T23:57:10.341Z,70.08
2023-08-10T23:59:41.186Z,69.36
